createdAt,value
2023-05-25T00:01:07.318Z,9.75
2023-05-25T00:03:36.271Z,11.25
2023-05-25T00:06:04.103Z,6.25
2023-05-25T00:08:31.864Z,10.00
2023-05-25T00:10:59.357Z,9.25
2023-05-25T00:13:26.392Z,9.00
2023-05-25T00:15:53.505Z,9.50
2023-05-25T00:18:21.242Z,8.00
2023-05-25T00:20:48.472Z,7.75
2023-05-25T00:23:15.611Z,9.00
2023-05-25T00:25:42.999Z,4.00
2023-05-25T00:28:11.847Z,9.75
2023-05-25T00:30:39.494Z,7.00
2023-05-25T00:33:07.223Z,7.25
2023-05-25T00:35:34.668Z,10.25
2023-05-25T00:38:01.846Z,9.00
2023-05-25T00:40:29.534Z,6.75
2023-05-25T00:42:59.533Z,9.00
2023-05-25T00:45:26.675Z,7.00
2023-05-25T00:47:54.452Z,7.00
2023-05-25T00:50:43.583Z,8.50
2023-05-25T00:53:13.102Z,9.25
2023-05-25T00:55:53.403Z,7.75
2023-05-25T00:58:27.426Z,8.50
2023-05-25T01:00:57.946Z,7.75
2023-05-25T01:03:29.785Z,8.50
2023-05-25T01:05:59.287Z,8.00
2023-05-25T01:08:28.206Z,8.00
2023-05-25T01:10:58.435Z,9.00
2023-05-25T01:13:27.720Z,11.75
2023-05-25T01:15:56.310Z,9.00
2023-05-25T01:18:23.465Z,6.00
2023-05-25T01:21:15.218Z,9.25
2023-05-25T01:23:51.512Z,9.25
2023-05-25T01:26:21.731Z,8.00
2023-05-25T01:28:53.371Z,9.25
2023-05-25T01:31:24.615Z,9.00
2023-05-25T01:33:53.900Z,9.75
2023-05-25T01:36:21.191Z,10.00
2023-05-25T01:38:49.607Z,10.00
2023-05-25T01:42:03.570Z,10.00
2023-05-25T01:44:31.173Z,11.25
2023-05-25T01:47:44.755Z,10.50
2023-05-25T01:50:16.156Z,10.75
2023-05-25T01:52:49.264Z,9.00
2023-05-25T01:55:20.217Z,11.00
2023-05-25T01:58:18.688Z,9.25
2023-05-25T02:00:49.266Z,11.75
2023-05-25T02:03:17.159Z,11.75
2023-05-25T02:05:46.524Z,10.75
2023-05-25T02:08:13.833Z,10.25
2023-05-25T02:10:40.979Z,13.50
2023-05-25T02:13:08.092Z,9.25
2023-05-25T02:15:35.328Z,10.50
2023-05-25T02:18:03.165Z,9.75
2023-05-25T02:20:31.601Z,11.00
2023-05-25T02:22:58.834Z,13.50
2023-05-25T02:25:26.017Z,11.50
2023-05-25T02:27:53.186Z,10.75
2023-05-25T02:30:20.954Z,12.00
2023-05-25T02:32:48.798Z,10.75
2023-05-25T02:35:16.197Z,12.00
2023-05-25T02:37:44.525Z,11.00
2023-05-25T02:40:12.119Z,10.25
2023-05-25T02:42:39.305Z,13.25
2023-05-25T02:45:10.757Z,10.75
2023-05-25T02:47:37.992Z,11.75
2023-05-25T02:50:05.902Z,12.50
2023-05-25T02:52:33.263Z,11.75
2023-05-25T02:55:01.136Z,11.75
2023-05-25T02:57:29.223Z,14.00
2023-05-25T02:59:57.066Z,13.25
2023-05-25T03:02:25.691Z,13.00
2023-05-25T03:04:55.589Z,11.75
2023-05-25T03:07:22.842Z,16.50
2023-05-25T03:09:49.967Z,13.75
2023-05-25T03:12:17.078Z,14.25
2023-05-25T03:14:44.099Z,13.25
2023-05-25T03:17:11.301Z,16.75
2023-05-25T03:19:38.854Z,14.00
2023-05-25T03:22:07.253Z,15.25
2023-05-25T03:24:34.298Z,15.25
2023-05-25T03:27:02.172Z,14.00
2023-05-25T03:29:29.710Z,16.50
2023-05-25T03:31:56.897Z,18.25
2023-05-25T03:34:24.902Z,19.75
2023-05-25T03:36:53.693Z,19.75
2023-05-25T03:39:22.365Z,16.75
2023-05-25T03:41:49.585Z,19.50
2023-05-25T03:44:17.001Z,19.25
2023-05-25T03:46:44.374Z,17.25
2023-05-25T03:49:14.230Z,14.25
2023-05-25T03:51:42.928Z,13.75
2023-05-25T03:54:10.852Z,15.00
2023-05-25T03:56:37.925Z,13.75
2023-05-25T03:59:05.029Z,14.75
2023-05-25T04:01:32.653Z,13.75
2023-05-25T04:04:00.098Z,15.00
2023-05-25T04:06:27.305Z,13.50
2023-05-25T04:08:55.548Z,14.00
2023-05-25T04:11:24.883Z,13.25
2023-05-25T04:13:51.913Z,16.75
2023-05-25T04:16:19.125Z,15.00
2023-05-25T04:18:46.255Z,15.50
2023-05-25T04:21:14.467Z,13.25
2023-05-25T04:23:41.540Z,14.50
2023-05-25T04:26:10.468Z,12.75
2023-05-25T04:28:37.770Z,15.00
2023-05-25T04:31:05.637Z,17.25
2023-05-25T04:33:39.772Z,20.75
2023-05-25T04:36:08.898Z,19.00
2023-05-25T04:38:35.987Z,20.00
2023-05-25T04:41:03.216Z,17.00
2023-05-25T04:43:30.547Z,17.50
2023-05-25T04:46:04.791Z,16.00
2023-05-25T04:48:34.362Z,14.50
2023-05-25T04:51:04.748Z,16.25
2023-05-25T04:53:32.390Z,12.50
2023-05-25T04:55:59.630Z,12.25
2023-05-25T04:58:27.121Z,13.25
2023-05-25T05:00:54.331Z,7.00
2023-05-25T05:03:22.762Z,12.00
2023-05-25T05:05:50.121Z,11.00
2023-05-25T05:08:17.345Z,15.25
2023-05-25T05:10:44.728Z,12.75
2023-05-25T05:13:12.600Z,15.25
2023-05-25T05:15:40.149Z,13.00
2023-05-25T05:18:08.917Z,12.75
2023-05-25T05:20:36.241Z,14.75
2023-05-25T05:23:03.560Z,13.75
2023-05-25T05:25:30.696Z,15.00
2023-05-25T05:27:58.149Z,13.00
2023-05-25T05:30:25.225Z,14.50
2023-05-25T05:32:53.241Z,12.60
2023-05-25T05:35:20.411Z,14.75
2023-05-25T05:37:48.473Z,11.00
2023-05-25T05:40:15.694Z,13.25
2023-05-25T05:42:42.996Z,7.25
2023-05-25T05:45:10.492Z,13.25
2023-05-25T05:47:38.029Z,11.00
2023-05-25T05:50:05.837Z,12.25
2023-05-25T05:52:33.048Z,12.00
2023-05-25T05:55:00.143Z,11.80
2023-05-25T05:57:28.675Z,11.40
2023-05-25T05:59:56.009Z,12.00
2023-05-25T06:02:24.120Z,13.00
2023-05-25T06:04:51.475Z,9.80
2023-05-25T06:07:18.546Z,12.60
2023-05-25T06:09:45.664Z,12.20
2023-05-25T06:12:12.696Z,13.60
2023-05-25T06:14:40.448Z,12.60
2023-05-25T06:17:07.770Z,12.00
2023-05-25T06:19:35.213Z,11.40
2023-05-25T06:22:02.298Z,8.20
2023-05-25T06:24:30.117Z,7.00
2023-05-25T06:26:57.172Z,9.80
2023-05-25T06:29:24.232Z,9.00
2023-05-25T06:31:51.442Z,12.00
2023-05-25T06:34:18.453Z,10.20
2023-05-25T06:36:46.913Z,10.00
2023-05-25T06:39:14.849Z,10.00
2023-05-25T06:41:41.865Z,11.00
2023-05-25T06:44:10.435Z,9.00
2023-05-25T06:46:39.342Z,11.80
2023-05-25T06:49:06.481Z,10.00
2023-05-25T06:51:33.860Z,13.20
2023-05-25T06:54:00.959Z,11.00
2023-05-25T06:56:28.146Z,15.20
2023-05-25T06:58:55.554Z,14.80
2023-05-25T07:01:22.796Z,14.00
2023-05-25T07:03:49.940Z,16.80
2023-05-25T07:06:17.589Z,13.60
2023-05-25T07:08:44.882Z,19.20
2023-05-25T07:11:14.300Z,13.20
2023-05-25T07:13:42.777Z,13.20
2023-05-25T07:16:09.936Z,14.00
2023-05-25T07:18:40.107Z,10.80
2023-05-25T07:21:10.184Z,14.00
2023-05-25T07:23:38.666Z,13.00
2023-05-25T07:26:06.156Z,13.00
2023-05-25T07:28:33.665Z,11.80
2023-05-25T07:31:01.615Z,11.40
2023-05-25T07:33:29.083Z,12.80
2023-05-25T07:35:56.166Z,7.60
2023-05-25T07:38:23.344Z,10.00
2023-05-25T07:40:50.885Z,10.00
2023-05-25T07:43:18.328Z,8.00
2023-05-25T07:45:45.697Z,9.60
2023-05-25T07:48:13.140Z,9.80
2023-05-25T07:50:40.334Z,10.60
2023-05-25T07:53:07.317Z,8.00
2023-05-25T07:55:34.333Z,9.80
2023-05-25T07:58:01.509Z,9.40
2023-05-25T08:00:28.559Z,9.40
2023-05-25T08:02:56.366Z,7.60
2023-05-25T08:05:23.695Z,8.20
2023-05-25T08:07:50.925Z,6.80
2023-05-25T08:10:18.220Z,5.20
2023-05-25T08:12:49.630Z,9.00
2023-05-25T08:15:17.713Z,7.60
2023-05-25T08:17:45.150Z,9.00
2023-05-25T08:20:12.891Z,8.20
2023-05-25T08:22:40.316Z,7.00
2023-05-25T08:25:08.341Z,7.00
2023-05-25T08:27:36.690Z,7.20
2023-05-25T08:30:08.204Z,7.00
2023-05-25T08:32:35.503Z,7.80
2023-05-25T08:35:04.765Z,6.00
2023-05-25T08:37:32.780Z,4.80
2023-05-25T08:40:02.516Z,6.40
2023-05-25T08:42:30.173Z,6.40
2023-05-25T08:44:57.413Z,4.60
2023-05-25T08:47:25.020Z,5.00
2023-05-25T08:49:55.445Z,4.00
2023-05-25T08:52:29.516Z,5.80
2023-05-25T08:55:02.287Z,5.00
2023-05-25T08:58:02.886Z,4.60
2023-05-25T09:00:35.132Z,5.40
2023-05-25T09:03:16.148Z,5.20
2023-05-25T09:05:44.241Z,3.80
2023-05-25T09:08:11.754Z,6.20
2023-05-25T09:10:39.320Z,7.40
2023-05-25T09:13:20.321Z,4.40
2023-05-25T09:15:50.007Z,4.60
2023-05-25T09:18:17.577Z,6.00
2023-05-25T09:20:47.066Z,6.60
2023-05-25T09:23:15.900Z,5.80
2023-05-25T09:25:44.658Z,5.20
2023-05-25T09:30:42.063Z,3.60
2023-05-25T09:33:13.643Z,5.80
2023-05-25T09:35:41.623Z,0.20
2023-05-25T09:38:08.949Z,5.80
2023-05-25T09:40:38.395Z,2.80
2023-05-25T09:43:05.744Z,5.00
2023-05-25T09:45:33.005Z,5.80
2023-05-25T09:48:00.258Z,4.80
2023-05-25T09:50:29.010Z,6.80
2023-05-25T09:52:59.918Z,4.40
2023-05-25T09:55:36.808Z,5.40
2023-05-25T09:58:15.834Z,6.20
2023-05-25T10:00:43.094Z,7.00
2023-05-25T10:03:15.354Z,6.40
2023-05-25T10:05:42.786Z,4.80
2023-05-25T10:08:11.589Z,4.00
2023-05-25T10:10:41.061Z,4.00
2023-05-25T10:13:11.812Z,6.60
2023-05-25T10:15:41.298Z,5.20
2023-05-25T10:18:10.044Z,3.00
2023-05-25T10:20:38.395Z,6.00
2023-05-25T10:23:12.054Z,5.00
2023-05-25T10:25:48.901Z,4.20
2023-05-25T10:28:36.169Z,5.20
2023-05-25T10:31:04.376Z,6.40
2023-05-25T10:33:33.334Z,10.40
2023-05-25T10:38:37.667Z,5.20
2023-05-25T10:41:10.969Z,4.60
2023-05-25T10:43:39.966Z,4.20
2023-05-25T10:46:08.046Z,4.20
2023-05-25T10:48:40.640Z,5.20
2023-05-25T10:51:09.311Z,4.60
2023-05-25T10:53:39.193Z,6.40
2023-05-25T10:56:10.027Z,8.60
2023-05-25T10:58:42.561Z,7.00
2023-05-25T11:01:12.702Z,6.40
2023-05-25T11:03:48.979Z,6.00
2023-05-25T11:06:18.488Z,7.00
2023-05-25T11:08:55.100Z,7.60
2023-05-25T11:11:43.085Z,6.80
2023-05-25T11:14:22.056Z,7.80
2023-05-25T11:17:08.311Z,8.80
2023-05-25T11:19:50.133Z,8.40
2023-05-25T11:22:22.861Z,5.60
2023-05-25T11:24:51.877Z,7.40
2023-05-25T11:27:30.181Z,10.40
2023-05-25T11:29:59.477Z,8.40
2023-05-25T11:32:28.361Z,9.00
2023-05-25T11:34:57.529Z,6.40
2023-05-25T11:37:29.033Z,6.60
2023-05-25T11:39:56.617Z,10.40
2023-05-25T11:42:24.752Z,8.80
2023-05-25T11:44:52.176Z,6.80
2023-05-25T11:47:25.867Z,9.20
2023-05-25T11:49:55.916Z,22.40
2023-05-25T11:52:23.521Z,19.20
2023-05-25T11:54:51.173Z,11.00
2023-05-25T11:57:25.793Z,8.00
2023-05-25T11:59:54.853Z,7.20
2023-05-25T12:02:23.472Z,8.20
2023-05-25T12:04:53.844Z,6.40
2023-05-25T12:07:21.069Z,6.00
2023-05-25T12:09:48.333Z,7.00
2023-05-25T12:12:15.773Z,3.40
2023-05-25T12:14:50.368Z,8.00
2023-05-25T12:17:19.280Z,6.60
2023-05-25T12:19:46.925Z,3.60
2023-05-25T12:22:14.637Z,7.00
2023-05-25T12:24:41.818Z,8.00
2023-05-25T12:27:19.788Z,7.00
2023-05-25T12:29:48.136Z,7.40
2023-05-25T12:32:16.477Z,7.60
2023-05-25T12:34:43.602Z,9.00
2023-05-25T12:37:21.794Z,8.80
2023-05-25T12:39:49.077Z,7.80
2023-05-25T12:42:17.751Z,8.60
2023-05-25T12:44:46.817Z,8.00
2023-05-25T12:47:28.211Z,7.80
2023-05-25T12:50:15.396Z,9.00
2023-05-25T12:52:45.029Z,6.80
2023-05-25T12:55:29.549Z,18.20
2023-05-25T12:58:02.390Z,11.20
2023-05-25T13:00:34.632Z,9.00
2023-05-25T13:03:03.051Z,9.60
2023-05-25T13:05:33.909Z,12.00
2023-05-25T13:08:02.142Z,10.00
2023-05-25T13:10:32.806Z,9.80
2023-05-25T13:13:00.868Z,8.80
2023-05-25T13:15:29.052Z,9.40
2023-05-25T13:18:00.420Z,10.00
2023-05-25T13:20:30.686Z,8.60
2023-05-25T13:22:58.636Z,10.00
2023-05-25T13:25:28.068Z,11.00
2023-05-25T13:27:58.236Z,10.80
2023-05-25T13:30:26.500Z,12.60
2023-05-25T13:32:54.028Z,13.00
2023-05-25T13:35:38.035Z,6.00
2023-05-25T13:38:05.784Z,11.20
2023-05-25T13:40:32.976Z,10.20
2023-05-25T13:42:59.999Z,7.80
2023-05-25T13:45:27.607Z,6.40
2023-05-25T13:47:55.029Z,10.60
2023-05-25T13:50:22.135Z,2.60
2023-05-25T13:52:49.321Z,11.80
2023-05-25T13:55:16.720Z,10.40
2023-05-25T13:57:43.881Z,11.00
2023-05-25T14:00:11.413Z,5.80
2023-05-25T14:02:38.707Z,10.60
2023-05-25T14:05:06.257Z,11.40
2023-05-25T14:07:33.361Z,12.00
2023-05-25T14:10:00.726Z,11.20
2023-05-25T14:12:28.028Z,14.00
2023-05-25T14:14:55.875Z,12.00
2023-05-25T14:17:24.759Z,11.00
2023-05-25T14:19:52.142Z,15.00
2023-05-25T14:22:19.471Z,11.20
2023-05-25T14:24:46.571Z,12.80
2023-05-25T14:27:13.602Z,10.20
2023-05-25T14:29:40.932Z,10.00
2023-05-25T14:32:07.954Z,8.60
2023-05-25T14:34:35.183Z,10.60
2023-05-25T14:37:02.172Z,11.00
2023-05-25T14:39:29.892Z,24.40
2023-05-25T14:41:57.249Z,11.00
2023-05-25T14:44:24.461Z,12.00
2023-05-25T14:46:51.566Z,15.60
2023-05-25T14:49:18.652Z,12.80
2023-05-25T14:51:45.767Z,11.80
2023-05-25T14:54:13.854Z,9.40
2023-05-25T14:56:41.169Z,17.80
2023-05-25T14:59:08.367Z,10.60
2023-05-25T15:01:35.807Z,11.20
2023-05-25T15:04:03.339Z,10.80
2023-05-25T15:06:32.150Z,11.40
2023-05-25T15:08:59.624Z,9.60
2023-05-25T15:11:29.470Z,11.20
2023-05-25T15:13:58.762Z,8.60
2023-05-25T15:16:26.366Z,10.00
2023-05-25T15:18:53.460Z,9.80
2023-05-25T15:21:20.647Z,9.80
2023-05-25T15:23:47.678Z,10.20
2023-05-25T15:26:14.855Z,11.00
2023-05-25T15:28:41.993Z,9.60
2023-05-25T15:31:09.232Z,16.00
2023-05-25T15:33:53.862Z,18.60
2023-05-25T15:36:25.287Z,16.40
2023-05-25T15:38:52.392Z,21.80
2023-05-25T15:41:19.666Z,18.20
2023-05-25T15:43:52.769Z,18.40
2023-05-25T15:46:20.368Z,19.00
2023-05-25T15:48:47.528Z,18.80
2023-05-25T15:51:14.735Z,18.00
2023-05-25T15:53:43.690Z,15.80
2023-05-25T15:56:11.123Z,21.00
2023-05-25T15:58:38.394Z,19.80
2023-05-25T16:01:05.671Z,15.00
2023-05-25T16:03:33.220Z,21.20
2023-05-25T16:06:00.398Z,21.80
2023-05-25T16:08:27.675Z,20.20
2023-05-25T16:10:54.689Z,21.00
2023-05-25T16:13:22.033Z,20.40
2023-05-25T16:15:49.196Z,19.00
2023-05-25T16:18:16.784Z,17.80
2023-05-25T16:20:44.482Z,17.40
2023-05-25T16:23:11.970Z,16.20
2023-05-25T16:25:39.062Z,19.00
2023-05-25T16:28:06.250Z,18.80
2023-05-25T16:30:33.682Z,17.20
2023-05-25T16:33:01.128Z,17.00
2023-05-25T16:35:28.263Z,12.40
2023-05-25T16:37:56.239Z,16.80
2023-05-25T16:40:23.463Z,18.00
2023-05-25T16:42:50.623Z,14.00
2023-05-25T16:45:18.066Z,16.40
2023-05-25T16:47:45.205Z,12.40
2023-05-25T16:50:12.340Z,9.20
2023-05-25T16:52:39.450Z,7.40
2023-05-25T16:55:07.267Z,7.40
2023-05-25T16:57:34.543Z,6.80
2023-05-25T17:00:01.595Z,4.20
2023-05-25T17:02:28.831Z,7.40
2023-05-25T17:04:56.004Z,6.80
2023-05-25T17:07:23.130Z,7.00
2023-05-25T17:09:50.432Z,6.40
2023-05-25T17:12:17.618Z,6.60
2023-05-25T17:14:44.741Z,6.00
2023-05-25T17:17:11.934Z,3.60
2023-05-25T17:19:39.078Z,11.60
2023-05-25T17:22:06.292Z,9.80
2023-05-25T17:24:34.573Z,5.80
2023-05-25T17:27:02.050Z,5.80
2023-05-25T17:29:30.762Z,7.80
2023-05-25T17:31:57.934Z,6.00
2023-05-25T17:34:25.225Z,4.20
2023-05-25T17:36:52.356Z,8.00
2023-05-25T17:39:19.516Z,3.40
2023-05-25T17:41:47.412Z,4.40
2023-05-25T17:44:14.565Z,5.00
2023-05-25T17:46:43.015Z,7.00
2023-05-25T17:49:10.209Z,6.00
2023-05-25T17:51:37.938Z,6.00
2023-05-25T17:54:05.165Z,5.80
2023-05-25T17:56:32.485Z,6.20
2023-05-25T17:58:59.712Z,5.20
2023-05-25T18:01:27.139Z,7.60
2023-05-25T18:03:54.871Z,6.60
2023-05-25T18:06:22.183Z,6.00
2023-05-25T18:08:49.410Z,5.00
2023-05-25T18:11:16.550Z,7.80
2023-05-25T18:13:44.405Z,7.00
2023-05-25T18:16:11.740Z,9.80
2023-05-25T18:18:39.233Z,6.80
2023-05-25T18:21:06.596Z,8.80
2023-05-25T18:23:33.766Z,5.20
2023-05-25T18:26:00.832Z,6.80
2023-05-25T18:28:29.752Z,10.00
2023-05-25T18:30:58.264Z,8.40
2023-05-25T18:33:25.415Z,9.00
2023-05-25T18:35:52.681Z,9.40
2023-05-25T18:38:19.997Z,11.00
2023-05-25T18:40:47.360Z,7.60
2023-05-25T18:43:14.623Z,7.80
2023-05-25T18:45:44.087Z,10.00
2023-05-25T18:48:11.492Z,9.80
2023-05-25T18:50:39.951Z,15.00
2023-05-25T18:53:09.972Z,12.80
2023-05-25T18:55:37.987Z,11.00
2023-05-25T18:58:05.271Z,12.25
2023-05-25T19:00:32.506Z,11.60
2023-05-25T19:02:59.762Z,12.00
2023-05-25T19:05:27.201Z,11.00
2023-05-25T19:07:58.924Z,8.80
2023-05-25T19:10:27.993Z,7.80
2023-05-25T19:12:55.300Z,9.00
2023-05-25T19:15:22.928Z,10.80
2023-05-25T19:17:50.201Z,9.40
2023-05-25T19:20:17.367Z,10.20
2023-05-25T19:22:44.810Z,10.80
2023-05-25T19:25:12.088Z,10.00
2023-05-25T19:27:39.271Z,9.00
2023-05-25T19:30:07.159Z,10.00
2023-05-25T19:32:34.402Z,9.20
2023-05-25T19:35:01.582Z,5.80
2023-05-25T19:37:28.691Z,10.40
2023-05-25T19:39:55.766Z,8.80
2023-05-25T19:42:23.081Z,11.25
2023-05-25T19:44:50.529Z,14.75
2023-05-25T19:47:17.532Z,13.25
2023-05-25T19:49:44.780Z,14.25
2023-05-25T19:52:11.877Z,14.00
2023-05-25T19:54:39.059Z,13.50
2023-05-25T19:57:06.868Z,10.00
2023-05-25T19:59:34.769Z,9.75
2023-05-25T20:02:01.760Z,9.00
2023-05-25T20:04:29.094Z,12.50
2023-05-25T20:06:56.209Z,8.50
2023-05-25T20:09:30.726Z,12.20
2023-05-25T20:11:58.786Z,11.75
2023-05-25T20:14:26.546Z,11.75
2023-05-25T20:16:56.015Z,11.50
2023-05-25T20:19:23.468Z,12.00
2023-05-25T20:21:51.205Z,11.00
2023-05-25T20:24:18.398Z,9.75
2023-05-25T20:26:45.757Z,12.75
2023-05-25T20:29:13.288Z,12.00
2023-05-25T20:31:40.575Z,16.25
2023-05-25T20:34:07.875Z,14.00
2023-05-25T20:36:36.700Z,15.75
2023-05-25T20:39:03.804Z,14.50
2023-05-25T20:41:32.047Z,16.25
2023-05-25T20:43:59.210Z,14.50
2023-05-25T20:46:26.939Z,15.00
2023-05-25T20:48:54.276Z,13.50
2023-05-25T20:51:22.034Z,13.50
2023-05-25T20:53:49.229Z,15.25
2023-05-25T20:56:16.390Z,15.25
2023-05-25T20:58:43.985Z,13.25
2023-05-25T21:01:11.264Z,15.75
2023-05-25T21:03:40.027Z,14.00
2023-05-25T21:06:07.455Z,14.25
2023-05-25T21:08:35.557Z,16.75
2023-05-25T21:11:02.613Z,16.75
2023-05-25T21:13:30.733Z,19.25
2023-05-25T21:15:57.810Z,16.00
2023-05-25T21:18:24.856Z,18.75
2023-05-25T21:20:51.965Z,18.00
2023-05-25T21:23:19.417Z,16.00
2023-05-25T21:25:46.860Z,15.50
2023-05-25T21:28:15.189Z,19.00
2023-05-25T21:30:42.268Z,15.25
2023-05-25T21:33:09.369Z,17.25
2023-05-25T21:35:36.467Z,18.25
2023-05-25T21:38:04.164Z,19.50
2023-05-25T21:40:31.367Z,14.25
2023-05-25T21:42:58.636Z,16.00
2023-05-25T21:45:26.045Z,16.00
2023-05-25T21:47:56.152Z,16.25
2023-05-25T21:50:23.527Z,13.75
2023-05-25T21:52:50.552Z,13.75
2023-05-25T21:55:17.550Z,14.25
2023-05-25T21:57:44.514Z,16.75
2023-05-25T22:00:12.826Z,17.25
2023-05-25T22:02:41.190Z,17.00
2023-05-25T22:05:08.555Z,17.00
2023-05-25T22:07:35.892Z,17.00
2023-05-25T22:10:03.970Z,18.75
2023-05-25T22:12:31.594Z,18.75
2023-05-25T22:14:58.756Z,16.00
2023-05-25T22:17:25.989Z,16.25
2023-05-25T22:20:06.582Z,18.00
2023-05-25T22:22:35.108Z,17.00
2023-05-25T22:25:02.267Z,17.75
2023-05-25T22:27:29.741Z,16.75
2023-05-25T22:29:56.940Z,19.50
2023-05-25T22:32:24.280Z,17.00
2023-05-25T22:34:51.482Z,19.25
2023-05-25T22:37:19.146Z,20.00
2023-05-25T22:39:46.207Z,17.75
2023-05-25T22:42:13.263Z,18.25
2023-05-25T22:44:41.260Z,14.25
2023-05-25T22:47:08.349Z,18.25
2023-05-25T22:49:41.287Z,18.00
2023-05-25T22:52:12.064Z,16.75
2023-05-25T22:54:39.872Z,18.25
2023-05-25T22:57:09.327Z,20.00
2023-05-25T22:59:36.724Z,16.25
2023-05-25T23:02:04.081Z,18.25
2023-05-25T23:04:31.982Z,15.00
2023-05-25T23:06:59.028Z,19.00
2023-05-25T23:09:26.073Z,18.75
2023-05-25T23:11:53.677Z,17.25
2023-05-25T23:14:21.060Z,17.75
2023-05-25T23:16:51.062Z,17.00
2023-05-25T23:19:18.375Z,14.00
2023-05-25T23:21:46.105Z,15.75
2023-05-25T23:24:13.167Z,16.50
2023-05-25T23:26:40.513Z,15.25
2023-05-25T23:29:07.736Z,16.00
2023-05-25T23:31:35.007Z,15.75
2023-05-25T23:34:05.585Z,19.50
2023-05-25T23:36:33.921Z,17.50
2023-05-25T23:39:01.168Z,16.75
2023-05-25T23:41:28.338Z,17.75
2023-05-25T23:43:56.173Z,19.75
2023-05-25T23:46:25.225Z,19.75
2023-05-25T23:48:52.241Z,20.00
2023-05-25T23:51:19.832Z,13.00
2023-05-25T23:53:47.225Z,18.75
2023-05-25T23:56:14.412Z,18.25
2023-05-25T23:58:42.772Z,19.00
